Republica Dominicana

TAF-AILA

  •  

                                 

                                                                                            SANTO DOMINGO 02 DE JUNIO DEL 2020

                                                                                                   AEROP. INT. LAS AMERICAS JFPG

     

    FTDR31 MDSD 021000Z
    TAF 

    TAF MDPP 021000Z 0212/0312 00000KT 9999 FEW018 BECMG 0213/0215 09010KT=

    TAF MDST 021000Z 0212/0312 14008KT 9999 SCT018 SCT300 PROB30 0215/0221 7000 –TSRA SCT014 BKN070=

    TAF MDPC 021000Z 0212/0312 00000KT 9999 FEW018 SCT300 BECMG 0212/0214 07005KT=

    TAF MDBH 021000Z 0212/0312 13020KT 9999 SCT018 SCT300=

    TAF MDJB 021000Z 0212/0312 00000KT 9999 FEW018 BECMG 0215/0217 18010KT PROB30 0218/0300 8000 –TSRA FEW017CB BKN018=

    TAF MDSD 021000Z 0212/0312 05006KT 9999 SCT018 SCT300 PROB30 0217/0222 8000 –TSRA FEW017 BKN018=

    TAF MDLR 021000Z 0212/0312 05008KT 9999 SCT020 BECMG 0215/0217 16010KT PROB30 0218/0300 7000 –TSRA FEW015CB BKN017=
    TAF MDCY 021000Z 0212/0312 00000KT 9999 FEW018 BECMG 0215/0217 06008KT PROB30 0217/0223 8000 –TSRA FEW016CB BKN017 SCT300=

    MDPP AEROPUERTO INTERNACIONAL LA UNION PUERTO PLATA

    MDST AEROPUERTO INTERNACIONAL DE SANTIAGO

    MDPC AEROPUERTO INTERNACIONAL PUNTA CANA

    MDBH AEROPUERTO INTERNACIONAL DE BARAHONA

    MDJB AEROPUERTO INTERNACIONAL JOAQUIN BALAGUER

    MDSD AEROPUERTO INTERNACIONAL LAS AMERICAS

    MDLR AEROPUERTO INTERNACIONAL LA ROMANA

    MDCY AEROPUERTO INTERNACIONAL DE CATEY

     

     

     

    MDPP// D.OGANDO

    MDST// ESMEYRA BURGOS

    MDPC// MAXIMILIANO OTAÑEZ

    MDBH// HATY MOTA

    MDJB// HATY MOTA

    MDSD// HATY MOTA

    MDLR// HATY MOTA

    MDCY// HATY MOTA




Tamaño letra

Contraste

Otros